sensor_id;sensor_type;location;lat;lon;timestamp;P1;durP1;ratioP1;P2;durP2;ratioP2
7051;SDS011;3567;52.444;13.556;2023-01-31T00:01:22;26.98;;;4.35;;
7051;SDS011;3567;52.444;13.556;2023-01-31T00:03:55;17.42;;;2.97;;
7051;SDS011;3567;52.444;13.556;2023-01-31T00:06:23;15.35;;;3.45;;
7051;SDS011;3567;52.444;13.556;2023-01-31T00:08:51;21.40;;;2.83;;
7051;SDS011;3567;52.444;13.556;2023-01-31T00:11:18;19.15;;;3.22;;
7051;SDS011;3567;52.444;13.556;2023-01-31T00:13:45;19.05;;;2.85;;
7051;SDS011;3567;52.444;13.556;2023-01-31T00:16:12;21.17;;;3.08;;
7051;SDS011;3567;52.444;13.556;2023-01-31T00:18:38;13.77;;;2.67;;
7051;SDS011;3567;52.444;13.556;2023-01-31T00:21:05;18.08;;;3.38;;
7051;SDS011;3567;52.444;13.556;2023-01-31T00:23:32;13.15;;;1.90;;
7051;SDS011;3567;52.444;13.556;2023-01-31T00:26:07;17.13;;;3.30;;
7051;SDS011;3567;52.444;13.556;2023-01-31T00:28:34;16.30;;;3.05;;
7051;SDS011;3567;52.444;13.556;2023-01-31T00:30:59;19.33;;;3.83;;
7051;SDS011;3567;52.444;13.556;2023-01-31T00:33:25;19.02;;;3.25;;
7051;SDS011;3567;52.444;13.556;2023-01-31T00:35:50;22.48;;;3.10;;
7051;SDS011;3567;52.444;13.556;2023-01-31T00:38:15;17.83;;;3.38;;
7051;SDS011;3567;52.444;13.556;2023-01-31T00:40:41;23.73;;;3.08;;
7051;SDS011;3567;52.444;13.556;2023-01-31T00:43:06;31.75;;;3.88;;
7051;SDS011;3567;52.444;13.556;2023-01-31T00:45:31;16.08;;;2.40;;
7051;SDS011;3567;52.444;13.556;2023-01-31T00:47:57;22.73;;;3.63;;
7051;SDS011;3567;52.444;13.556;2023-01-31T00:50:22;12.13;;;2.13;;
7051;SDS011;3567;52.444;13.556;2023-01-31T00:52:47;21.50;;;3.05;;
7051;SDS011;3567;52.444;13.556;2023-01-31T00:55:13;17.20;;;2.38;;
7051;SDS011;3567;52.444;13.556;2023-01-31T00:57:38;21.17;;;2.97;;
7051;SDS011;3567;52.444;13.556;2023-01-31T01:00:04;13.82;;;3.03;;
7051;SDS011;3567;52.444;13.556;2023-01-31T01:02:30;18.98;;;2.60;;
7051;SDS011;3567;52.444;13.556;2023-01-31T01:04:55;21.92;;;2.85;;
7051;SDS011;3567;52.444;13.556;2023-01-31T01:07:20;16.88;;;2.67;;
7051;SDS011;3567;52.444;13.556;2023-01-31T01:09:46;18.23;;;3.05;;
7051;SDS011;3567;52.444;13.556;2023-01-31T01:12:11;16.10;;;2.10;;
7051;SDS011;3567;52.444;13.556;2023-01-31T01:14:36;20.27;;;2.83;;
7051;SDS011;3567;52.444;13.556;2023-01-31T01:17:02;21.27;;;2.53;;
7051;SDS011;3567;52.444;13.556;2023-01-31T01:19:27;14.35;;;3.42;;
7051;SDS011;3567;52.444;13.556;2023-01-31T01:21:53;15.85;;;2.83;;
7051;SDS011;3567;52.444;13.556;2023-01-31T01:24:19;22.67;;;2.67;;
7051;SDS011;3567;52.444;13.556;2023-01-31T01:26:45;14.80;;;2.25;;
7051;SDS011;3567;52.444;13.556;2023-01-31T01:29:10;18.50;;;2.63;;
7051;SDS011;3567;52.444;13.556;2023-01-31T01:31:36;18.38;;;2.50;;
7051;SDS011;3567;52.444;13.556;2023-01-31T01:34:04;17.60;;;2.03;;
7051;SDS011;3567;52.444;13.556;2023-01-31T01:36:36;12.50;;;2.10;;
7051;SDS011;3567;52.444;13.556;2023-01-31T01:39:02;11.63;;;2.15;;
7051;SDS011;3567;52.444;13.556;2023-01-31T01:41:30;18.60;;;2.03;;
7051;SDS011;3567;52.444;13.556;2023-01-31T01:43:58;15.18;;;2.50;;
7051;SDS011;3567;52.444;13.556;2023-01-31T01:46:32;15.98;;;2.63;;
7051;SDS011;3567;52.444;13.556;2023-01-31T01:51:53;20.00;;;2.33;;
7051;SDS011;3567;52.444;13.556;2023-01-31T01:54:23;12.73;;;2.00;;
7051;SDS011;3567;52.444;13.556;2023-01-31T01:56:55;17.70;;;2.28;;
7051;SDS011;3567;52.444;13.556;2023-01-31T01:59:26;17.38;;;2.30;;
7051;SDS011;3567;52.444;13.556;2023-01-31T02:01:56;13.20;;;2.17;;
7051;SDS011;3567;52.444;13.556;2023-01-31T02:04:22;16.45;;;1.75;;
7051;SDS011;3567;52.444;13.556;2023-01-31T02:06:51;14.73;;;2.08;;
7051;SDS011;3567;52.444;13.556;2023-01-31T02:09:21;21.05;;;2.10;;
7051;SDS011;3567;52.444;13.556;2023-01-31T02:11:52;19.65;;;2.80;;
7051;SDS011;3567;52.444;13.556;2023-01-31T02:14:18;20.20;;;2.80;;
7051;SDS011;3567;52.444;13.556;2023-01-31T02:16:44;13.60;;;2.25;;
7051;SDS011;3567;52.444;13.556;2023-01-31T02:19:44;13.88;;;2.70;;
7051;SDS011;3567;52.444;13.556;2023-01-31T02:33:20;15.80;;;2.70;;
7051;SDS011;3567;52.444;13.556;2023-01-31T02:35:51;18.42;;;1.80;;
7051;SDS011;3567;52.444;13.556;2023-01-31T02:38:29;19.20;;;2.33;;
7051;SDS011;3567;52.444;13.556;2023-01-31T02:41:20;13.75;;;2.78;;
7051;SDS011;3567;52.444;13.556;2023-01-31T02:44:01;14.95;;;1.98;;
7051;SDS011;3567;52.444;13.556;2023-01-31T02:46:59;19.27;;;2.30;;
7051;SDS011;3567;52.444;13.556;2023-01-31T02:49:49;6.45;;;1.85;;
7051;SDS011;3567;52.444;13.556;2023-01-31T02:52:22;8.95;;;1.45;;
7051;SDS011;3567;52.444;13.556;2023-01-31T02:55:31;11.10;;;1.75;;
7051;SDS011;3567;52.444;13.556;2023-01-31T02:58:21;12.43;;;1.73;;
7051;SDS011;3567;52.444;13.556;2023-01-31T03:00:49;19.08;;;2.13;;
7051;SDS011;3567;52.444;13.556;2023-01-31T03:03:26;13.95;;;2.08;;
7051;SDS011;3567;52.444;13.556;2023-01-31T03:06:11;16.08;;;2.45;;
7051;SDS011;3567;52.444;13.556;2023-01-31T03:20:43;11.93;;;1.65;;
7051;SDS011;3567;52.444;13.556;2023-01-31T03:23:23;19.83;;;1.60;;
7051;SDS011;3567;52.444;13.556;2023-01-31T03:25:53;13.90;;;2.13;;
7051;SDS011;3567;52.444;13.556;2023-01-31T03:28:22;12.63;;;2.17;;
7051;SDS011;3567;52.444;13.556;2023-01-31T03:30:54;13.23;;;2.17;;
7051;SDS011;3567;52.444;13.556;2023-01-31T03:33:29;13.75;;;2.03;;
7051;SDS011;3567;52.444;13.556;2023-01-31T03:41:47;11.23;;;2.10;;
7051;SDS011;3567;52.444;13.556;2023-01-31T03:46:52;13.93;;;1.88;;
7051;SDS011;3567;52.444;13.556;2023-01-31T03:49:25;7.28;;;1.67;;
7051;SDS011;3567;52.444;13.556;2023-01-31T03:51:53;14.18;;;1.63;;
7051;SDS011;3567;52.444;13.556;2023-01-31T03:54:26;12.40;;;1.77;;
7051;SDS011;3567;52.444;13.556;2023-01-31T03:56:57;7.32;;;1.65;;
7051;SDS011;3567;52.444;13.556;2023-01-31T03:59:45;15.27;;;2.17;;
7051;SDS011;3567;52.444;13.556;2023-01-31T04:02:17;9.13;;;1.80;;
7051;SDS011;3567;52.444;13.556;2023-01-31T04:04:46;14.60;;;1.92;;
7051;SDS011;3567;52.444;13.556;2023-01-31T04:07:17;13.57;;;2.10;;
7051;SDS011;3567;52.444;13.556;2023-01-31T04:09:42;6.32;;;1.52;;
7051;SDS011;3567;52.444;13.556;2023-01-31T04:12:08;9.30;;;2.22;;
7051;SDS011;3567;52.444;13.556;2023-01-31T04:14:37;21.98;;;2.47;;
7051;SDS011;3567;52.444;13.556;2023-01-31T04:17:02;16.48;;;2.22;;
7051;SDS011;3567;52.444;13.556;2023-01-31T04:19:28;17.50;;;1.88;;
7051;SDS011;3567;52.444;13.556;2023-01-31T04:21:53;17.17;;;3.10;;
7051;SDS011;3567;52.444;13.556;2023-01-31T04:24:18;13.00;;;1.83;;
7051;SDS011;3567;52.444;13.556;2023-01-31T04:26:44;14.63;;;2.75;;
7051;SDS011;3567;52.444;13.556;2023-01-31T04:29:09;8.95;;;1.65;;
7051;SDS011;3567;52.444;13.556;2023-01-31T04:31:34;12.10;;;1.77;;
7051;SDS011;3567;52.444;13.556;2023-01-31T04:34:00;16.70;;;1.58;;
7051;SDS011;3567;52.444;13.556;2023-01-31T04:36:25;16.42;;;1.80;;
7051;SDS011;3567;52.444;13.556;2023-01-31T04:38:51;16.05;;;1.85;;
7051;SDS011;3567;52.444;13.556;2023-01-31T04:41:16;7.85;;;1.42;;
7051;SDS011;3567;52.444;13.556;2023-01-31T04:43:42;10.77;;;1.75;;
7051;SDS011;3567;52.444;13.556;2023-01-31T04:46:07;13.05;;;2.20;;
7051;SDS011;3567;52.444;13.556;2023-01-31T04:48:33;13.80;;;2.13;;
7051;SDS011;3567;52.444;13.556;2023-01-31T04:50:58;20.05;;;2.70;;
7051;SDS011;3567;52.444;13.556;2023-01-31T04:53:23;20.58;;;3.30;;
7051;SDS011;3567;52.444;13.556;2023-01-31T04:55:52;13.27;;;1.45;;
7051;SDS011;3567;52.444;13.556;2023-01-31T04:58:19;8.02;;;1.27;;
7051;SDS011;3567;52.444;13.556;2023-01-31T05:00:44;20.05;;;2.90;;
7051;SDS011;3567;52.444;13.556;2023-01-31T05:03:34;12.95;;;2.47;;
7051;SDS011;3567;52.444;13.556;2023-01-31T05:06:24;12.80;;;1.90;;
7051;SDS011;3567;52.444;13.556;2023-01-31T05:09:14;10.43;;;1.95;;
7051;SDS011;3567;52.444;13.556;2023-01-31T05:12:04;9.07;;;1.60;;
7051;SDS011;3567;52.444;13.556;2023-01-31T05:14:55;15.77;;;2.13;;
7051;SDS011;3567;52.444;13.556;2023-01-31T05:17:52;11.35;;;1.90;;
7051;SDS011;3567;52.444;13.556;2023-01-31T05:20:44;15.30;;;1.83;;
7051;SDS011;3567;52.444;13.556;2023-01-31T05:24:02;18.80;;;2.38;;
7051;SDS011;3567;52.444;13.556;2023-01-31T05:26:54;18.83;;;1.98;;
7051;SDS011;3567;52.444;13.556;2023-01-31T05:29:45;14.82;;;2.05;;
7051;SDS011;3567;52.444;13.556;2023-01-31T05:32:36;26.05;;;1.52;;
7051;SDS011;3567;52.444;13.556;2023-01-31T05:35:26;11.80;;;2.33;;
7051;SDS011;3567;52.444;13.556;2023-01-31T05:38:16;13.48;;;1.98;;
7051;SDS011;3567;52.444;13.556;2023-01-31T05:41:07;12.05;;;2.03;;
7051;SDS011;3567;52.444;13.556;2023-01-31T05:43:57;11.73;;;1.85;;
7051;SDS011;3567;52.444;13.556;2023-01-31T05:46:47;14.32;;;1.90;;
7051;SDS011;3567;52.444;13.556;2023-01-31T05:49:38;12.68;;;1.98;;
7051;SDS011;3567;52.444;13.556;2023-01-31T05:52:29;14.45;;;1.98;;
7051;SDS011;3567;52.444;13.556;2023-01-31T07:05:15;13.43;;;2.03;;
7051;SDS011;3567;52.444;13.556;2023-01-31T07:07:41;12.75;;;2.15;;
7051;SDS011;3567;52.444;13.556;2023-01-31T07:10:07;17.35;;;2.78;;
7051;SDS011;3567;52.444;13.556;2023-01-31T07:12:33;20.77;;;2.13;;
7051;SDS011;3567;52.444;13.556;2023-01-31T07:14:59;20.77;;;3.22;;
7051;SDS011;3567;52.444;13.556;2023-01-31T07:17:24;11.20;;;2.33;;
7051;SDS011;3567;52.444;13.556;2023-01-31T07:19:49;16.85;;;2.47;;
7051;SDS011;3567;52.444;13.556;2023-01-31T07:22:15;16.75;;;3.15;;
7051;SDS011;3567;52.444;13.556;2023-01-31T07:24:40;13.35;;;2.45;;
7051;SDS011;3567;52.444;13.556;2023-01-31T07:27:06;14.85;;;2.50;;
7051;SDS011;3567;52.444;13.556;2023-01-31T07:29:31;15.10;;;2.65;;
7051;SDS011;3567;52.444;13.556;2023-01-31T07:31:57;31.50;;;6.35;;
7051;SDS011;3567;52.444;13.556;2023-01-31T07:34:22;9.43;;;1.95;;
7051;SDS011;3567;52.444;13.556;2023-01-31T07:36:48;9.63;;;1.60;;
7051;SDS011;3567;52.444;13.556;2023-01-31T07:39:14;13.25;;;1.63;;
7051;SDS011;3567;52.444;13.556;2023-01-31T07:41:39;17.85;;;2.75;;
7051;SDS011;3567;52.444;13.556;2023-01-31T07:44:05;12.52;;;2.20;;
7051;SDS011;3567;52.444;13.556;2023-01-31T07:46:32;9.98;;;1.80;;
7051;SDS011;3567;52.444;13.556;2023-01-31T07:48:58;18.25;;;2.30;;
7051;SDS011;3567;52.444;13.556;2023-01-31T07:51:24;11.10;;;3.00;;
7051;SDS011;3567;52.444;13.556;2023-01-31T07:53:49;15.07;;;3.15;;
7051;SDS011;3567;52.444;13.556;2023-01-31T07:56:15;12.90;;;2.67;;
7051;SDS011;3567;52.444;13.556;2023-01-31T07:58:42;18.15;;;2.13;;
7051;SDS011;3567;52.444;13.556;2023-01-31T08:01:11;18.40;;;2.45;;
7051;SDS011;3567;52.444;13.556;2023-01-31T08:03:57;14.05;;;2.17;;
7051;SDS011;3567;52.444;13.556;2023-01-31T08:06:23;14.95;;;2.72;;
7051;SDS011;3567;52.444;13.556;2023-01-31T08:08:48;16.33;;;2.35;;
7051;SDS011;3567;52.444;13.556;2023-01-31T08:11:14;9.25;;;1.60;;
7051;SDS011;3567;52.444;13.556;2023-01-31T08:13:39;19.98;;;2.58;;
7051;SDS011;3567;52.444;13.556;2023-01-31T08:16:05;17.08;;;2.35;;
7051;SDS011;3567;52.444;13.556;2023-01-31T08:18:33;15.43;;;2.20;;
7051;SDS011;3567;52.444;13.556;2023-01-31T08:20:59;16.90;;;2.97;;
7051;SDS011;3567;52.444;13.556;2023-01-31T08:23:25;13.35;;;2.45;;
7051;SDS011;3567;52.444;13.556;2023-01-31T08:25:52;12.35;;;2.30;;
7051;SDS011;3567;52.444;13.556;2023-01-31T08:28:22;13.05;;;2.55;;
7051;SDS011;3567;52.444;13.556;2023-01-31T08:30:48;7.15;;;1.63;;
7051;SDS011;3567;52.444;13.556;2023-01-31T08:33:13;13.98;;;2.03;;
7051;SDS011;3567;52.444;13.556;2023-01-31T08:35:38;13.05;;;2.45;;
7051;SDS011;3567;52.444;13.556;2023-01-31T08:38:04;15.05;;;2.35;;
7051;SDS011;3567;52.444;13.556;2023-01-31T08:40:29;10.50;;;2.25;;
7051;SDS011;3567;52.444;13.556;2023-01-31T08:42:56;9.85;;;2.28;;
7051;SDS011;3567;52.444;13.556;2023-01-31T08:45:22;11.88;;;2.00;;
7051;SDS011;3567;52.444;13.556;2023-01-31T08:47:52;17.70;;;1.90;;
7051;SDS011;3567;52.444;13.556;2023-01-31T08:50:19;19.42;;;1.75;;
7051;SDS011;3567;52.444;13.556;2023-01-31T08:52:44;11.52;;;1.70;;
7051;SDS011;3567;52.444;13.556;2023-01-31T08:55:09;7.00;;;1.70;;
7051;SDS011;3567;52.444;13.556;2023-01-31T08:57:38;14.45;;;2.55;;
7051;SDS011;3567;52.444;13.556;2023-01-31T09:00:04;16.83;;;2.67;;
7051;SDS011;3567;52.444;13.556;2023-01-31T09:02:31;19.77;;;3.10;;
7051;SDS011;3567;52.444;13.556;2023-01-31T09:04:56;13.80;;;2.50;;
7051;SDS011;3567;52.444;13.556;2023-01-31T09:07:22;11.50;;;2.13;;
7051;SDS011;3567;52.444;13.556;2023-01-31T09:09:47;11.45;;;2.53;;
7051;SDS011;3567;52.444;13.556;2023-01-31T09:12:13;10.50;;;2.50;;
7051;SDS011;3567;52.444;13.556;2023-01-31T09:14:38;14.98;;;2.13;;
7051;SDS011;3567;52.444;13.556;2023-01-31T09:17:04;15.65;;;2.63;;
7051;SDS011;3567;52.444;13.556;2023-01-31T09:19:31;18.10;;;2.70;;
7051;SDS011;3567;52.444;13.556;2023-01-31T09:21:57;10.95;;;2.53;;
7051;SDS011;3567;52.444;13.556;2023-01-31T09:24:22;12.50;;;2.75;;
7051;SDS011;3567;52.444;13.556;2023-01-31T09:26:47;8.98;;;2.05;;
7051;SDS011;3567;52.444;13.556;2023-01-31T09:29:13;18.85;;;3.05;;
7051;SDS011;3567;52.444;13.556;2023-01-31T09:31:38;14.90;;;3.28;;
7051;SDS011;3567;52.444;13.556;2023-01-31T09:40:08;13.23;;;2.35;;
7051;SDS011;3567;52.444;13.556;2023-01-31T09:42:46;17.58;;;2.50;;
7051;SDS011;3567;52.444;13.556;2023-01-31T09:45:14;14.68;;;3.47;;
7051;SDS011;3567;52.444;13.556;2023-01-31T09:48:04;16.85;;;2.78;;
7051;SDS011;3567;52.444;13.556;2023-01-31T09:53:12;18.90;;;3.33;;
7051;SDS011;3567;52.444;13.556;2023-01-31T09:58:55;16.30;;;3.85;;
7051;SDS011;3567;52.444;13.556;2023-01-31T10:01:44;17.67;;;3.05;;
7051;SDS011;3567;52.444;13.556;2023-01-31T10:04:22;10.77;;;2.35;;
7051;SDS011;3567;52.444;13.556;2023-01-31T10:06:57;15.68;;;3.15;;
7051;SDS011;3567;52.444;13.556;2023-01-31T10:09:35;22.13;;;2.80;;
7051;SDS011;3567;52.444;13.556;2023-01-31T10:14:44;19.52;;;2.42;;
7051;SDS011;3567;52.444;13.556;2023-01-31T10:17:18;16.05;;;2.47;;
7051;SDS011;3567;52.444;13.556;2023-01-31T10:20:09;15.93;;;2.83;;
7051;SDS011;3567;52.444;13.556;2023-01-31T10:22:57;23.25;;;2.55;;
7051;SDS011;3567;52.444;13.556;2023-01-31T10:30:55;14.38;;;2.20;;
7051;SDS011;3567;52.444;13.556;2023-01-31T10:33:56;13.50;;;2.28;;
7051;SDS011;3567;52.444;13.556;2023-01-31T10:36:28;18.10;;;2.47;;
7051;SDS011;3567;52.444;13.556;2023-01-31T10:44:23;15.75;;;2.92;;
7051;SDS011;3567;52.444;13.556;2023-01-31T10:46:58;15.93;;;2.15;;
7051;SDS011;3567;52.444;13.556;2023-01-31T10:49:24;12.48;;;2.88;;
7051;SDS011;3567;52.444;13.556;2023-01-31T10:57:39;16.40;;;2.95;;
7051;SDS011;3567;52.444;13.556;2023-01-31T11:00:05;19.00;;;3.33;;
7051;SDS011;3567;52.444;13.556;2023-01-31T11:02:42;16.23;;;2.75;;
7051;SDS011;3567;52.444;13.556;2023-01-31T11:05:12;18.83;;;3.00;;
7051;SDS011;3567;52.444;13.556;2023-01-31T11:07:42;13.48;;;2.55;;
7051;SDS011;3567;52.444;13.556;2023-01-31T11:10:28;18.45;;;2.95;;
7051;SDS011;3567;52.444;13.556;2023-01-31T11:12:55;15.32;;;3.40;;
7051;SDS011;3567;52.444;13.556;2023-01-31T11:15:28;17.63;;;2.95;;
7051;SDS011;3567;52.444;13.556;2023-01-31T11:18:00;14.93;;;3.05;;
7051;SDS011;3567;52.444;13.556;2023-01-31T11:22:56;14.55;;;2.97;;
7051;SDS011;3567;52.444;13.556;2023-01-31T11:25:23;11.60;;;3.22;;
7051;SDS011;3567;52.444;13.556;2023-01-31T11:27:55;14.13;;;3.38;;
7051;SDS011;3567;52.444;13.556;2023-01-31T11:30:37;22.00;;;3.42;;
7051;SDS011;3567;52.444;13.556;2023-01-31T11:33:04;12.63;;;2.95;;
7051;SDS011;3567;52.444;13.556;2023-01-31T11:35:30;21.20;;;3.35;;
7051;SDS011;3567;52.444;13.556;2023-01-31T11:42:58;11.45;;;2.42;;
7051;SDS011;3567;52.444;13.556;2023-01-31T11:45:27;17.00;;;3.20;;
7051;SDS011;3567;52.444;13.556;2023-01-31T11:47:56;16.85;;;3.20;;
7051;SDS011;3567;52.444;13.556;2023-01-31T11:50:36;19.02;;;3.65;;
7051;SDS011;3567;52.444;13.556;2023-01-31T11:53:14;13.95;;;3.67;;
7051;SDS011;3567;52.444;13.556;2023-01-31T11:55:43;18.38;;;3.75;;
7051;SDS011;3567;52.444;13.556;2023-01-31T11:58:21;18.77;;;4.00;;
7051;SDS011;3567;52.444;13.556;2023-01-31T12:00:52;24.70;;;5.40;;
7051;SDS011;3567;52.444;13.556;2023-01-31T12:03:20;22.73;;;4.38;;
7051;SDS011;3567;52.444;13.556;2023-01-31T12:05:49;17.10;;;4.22;;
7051;SDS011;3567;52.444;13.556;2023-01-31T12:08:35;23.80;;;4.30;;
7051;SDS011;3567;52.444;13.556;2023-01-31T12:14:16;16.52;;;3.55;;
7051;SDS011;3567;52.444;13.556;2023-01-31T12:16:41;18.25;;;4.05;;
7051;SDS011;3567;52.444;13.556;2023-01-31T12:22:00;15.07;;;3.38;;
7051;SDS011;3567;52.444;13.556;2023-01-31T12:27:30;17.73;;;3.97;;
7051;SDS011;3567;52.444;13.556;2023-01-31T12:35:56;20.52;;;4.75;;
7051;SDS011;3567;52.444;13.556;2023-01-31T12:44:05;23.30;;;5.10;;
7051;SDS011;3567;52.444;13.556;2023-01-31T12:52:18;18.58;;;6.10;;
7051;SDS011;3567;52.444;13.556;2023-01-31T13:00:26;26.60;;;5.75;;
7051;SDS011;3567;52.444;13.556;2023-01-31T13:03:09;21.60;;;6.15;;
7051;SDS011;3567;52.444;13.556;2023-01-31T13:08:28;22.35;;;6.55;;
7051;SDS011;3567;52.444;13.556;2023-01-31T13:14:11;25.20;;;7.15;;
7051;SDS011;3567;52.444;13.556;2023-01-31T13:16:22;21.73;;;6.00;;
7051;SDS011;3567;52.444;13.556;2023-01-31T13:18:54;26.45;;;6.70;;
7051;SDS011;3567;52.444;13.556;2023-01-31T13:21:24;26.05;;;6.13;;
7051;SDS011;3567;52.444;13.556;2023-01-31T13:26:54;16.75;;;6.57;;
7051;SDS011;3567;52.444;13.556;2023-01-31T13:35:17;31.50;;;6.90;;
7051;SDS011;3567;52.444;13.556;2023-01-31T13:37:47;18.60;;;5.90;;
7051;SDS011;3567;52.444;13.556;2023-01-31T13:40:22;22.63;;;6.70;;
7051;SDS011;3567;52.444;13.556;2023-01-31T13:42:50;17.70;;;6.15;;
7051;SDS011;3567;52.444;13.556;2023-01-31T13:45:21;21.83;;;7.10;;
7051;SDS011;3567;52.444;13.556;2023-01-31T13:47:58;20.10;;;6.20;;
7051;SDS011;3567;52.444;13.556;2023-01-31T13:53:04;19.52;;;7.13;;
7051;SDS011;3567;52.444;13.556;2023-01-31T13:55:37;19.55;;;6.25;;
7051;SDS011;3567;52.444;13.556;2023-01-31T13:58:17;21.17;;;6.60;;
7051;SDS011;3567;52.444;13.556;2023-01-31T14:00:47;16.70;;;6.30;;
7051;SDS011;3567;52.444;13.556;2023-01-31T14:03:20;21.13;;;6.57;;
7051;SDS011;3567;52.444;13.556;2023-01-31T14:10:59;13.48;;;5.72;;
7051;SDS011;3567;52.444;13.556;2023-01-31T14:13:27;14.95;;;6.32;;
7051;SDS011;3567;52.444;13.556;2023-01-31T14:16:02;20.98;;;6.70;;
7051;SDS011;3567;52.444;13.556;2023-01-31T14:18:48;13.18;;;5.75;;
7051;SDS011;3567;52.444;13.556;2023-01-31T14:23:55;10.70;;;6.28;;
7051;SDS011;3567;52.444;13.556;2023-01-31T14:29:11;12.57;;;4.95;;
7051;SDS011;3567;52.444;13.556;2023-01-31T14:31:41;11.23;;;5.35;;
7051;SDS011;3567;52.444;13.556;2023-01-31T14:34:18;13.40;;;5.90;;
7051;SDS011;3567;52.444;13.556;2023-01-31T14:37:07;12.88;;;4.93;;
7051;SDS011;3567;52.444;13.556;2023-01-31T14:39:53;12.18;;;4.60;;
7051;SDS011;3567;52.444;13.556;2023-01-31T14:45:15;7.90;;;4.57;;
7051;SDS011;3567;52.444;13.556;2023-01-31T14:54:04;8.27;;;4.82;;
7051;SDS011;3567;52.444;13.556;2023-01-31T14:59:43;9.98;;;4.68;;
7051;SDS011;3567;52.444;13.556;2023-01-31T15:05:17;7.68;;;5.63;;
7051;SDS011;3567;52.444;13.556;2023-01-31T15:10:55;9.73;;;5.13;;
7051;SDS011;3567;52.444;13.556;2023-01-31T15:15:58;12.40;;;7.03;;
7051;SDS011;3567;52.444;13.556;2023-01-31T15:18:25;8.57;;;4.88;;
7051;SDS011;3567;52.444;13.556;2023-01-31T15:20:57;9.05;;;6.25;;
7051;SDS011;3567;52.444;13.556;2023-01-31T15:23:27;9.25;;;6.25;;
7051;SDS011;3567;52.444;13.556;2023-01-31T15:25:56;10.27;;;6.05;;
7051;SDS011;3567;52.444;13.556;2023-01-31T15:28:36;12.00;;;5.95;;
7051;SDS011;3567;52.444;13.556;2023-01-31T15:31:06;8.13;;;6.80;;
7051;SDS011;3567;52.444;13.556;2023-01-31T15:33:41;10.70;;;7.03;;
7051;SDS011;3567;52.444;13.556;2023-01-31T15:38:59;8.98;;;7.72;;
7051;SDS011;3567;52.444;13.556;2023-01-31T15:41:43;11.25;;;7.28;;
7051;SDS011;3567;52.444;13.556;2023-01-31T15:44:09;11.80;;;7.95;;
7051;SDS011;3567;52.444;13.556;2023-01-31T15:46:44;10.13;;;7.32;;
7051;SDS011;3567;52.444;13.556;2023-01-31T15:49:19;13.63;;;8.05;;
7051;SDS011;3567;52.444;13.556;2023-01-31T15:52:04;8.45;;;7.53;;
7051;SDS011;3567;52.444;13.556;2023-01-31T15:54:57;13.25;;;8.25;;
7051;SDS011;3567;52.444;13.556;2023-01-31T15:57:31;9.88;;;7.93;;
7051;SDS011;3567;52.444;13.556;2023-01-31T16:00:05;14.57;;;8.63;;
7051;SDS011;3567;52.444;13.556;2023-01-31T16:02:32;12.18;;;9.25;;
7051;SDS011;3567;52.444;13.556;2023-01-31T16:04:57;9.50;;;8.60;;
7051;SDS011;3567;52.444;13.556;2023-01-31T16:07:24;14.48;;;9.38;;
7051;SDS011;3567;52.444;13.556;2023-01-31T16:09:56;13.02;;;9.25;;
7051;SDS011;3567;52.444;13.556;2023-01-31T16:12:25;12.32;;;9.77;;
7051;SDS011;3567;52.444;13.556;2023-01-31T16:14:53;15.65;;;9.90;;
7051;SDS011;3567;52.444;13.556;2023-01-31T16:17:24;10.27;;;9.25;;
7051;SDS011;3567;52.444;13.556;2023-01-31T16:19:51;12.23;;;9.93;;
7051;SDS011;3567;52.444;13.556;2023-01-31T16:22:27;11.07;;;9.35;;
7051;SDS011;3567;52.444;13.556;2023-01-31T16:24:58;11.43;;;10.23;;
7051;SDS011;3567;52.444;13.556;2023-01-31T16:27:33;15.02;;;10.38;;
7051;SDS011;3567;52.444;13.556;2023-01-31T16:30:02;12.52;;;10.15;;
7051;SDS011;3567;52.444;13.556;2023-01-31T16:32:32;11.27;;;10.02;;
7051;SDS011;3567;52.444;13.556;2023-01-31T16:35:16;11.95;;;10.23;;
7051;SDS011;3567;52.444;13.556;2023-01-31T16:37:47;16.40;;;11.88;;
7051;SDS011;3567;52.444;13.556;2023-01-31T16:40:27;15.52;;;10.85;;
7051;SDS011;3567;52.444;13.556;2023-01-31T16:43:07;15.60;;;11.57;;
7051;SDS011;3567;52.444;13.556;2023-01-31T16:45:34;15.50;;;12.80;;
7051;SDS011;3567;52.444;13.556;2023-01-31T16:54:16;15.93;;;12.07;;
7051;SDS011;3567;52.444;13.556;2023-01-31T16:56:44;17.35;;;12.60;;
7051;SDS011;3567;52.444;13.556;2023-01-31T16:59:56;16.88;;;12.25;;
7051;SDS011;3567;52.444;13.556;2023-01-31T17:02:01;15.45;;;12.35;;
7051;SDS011;3567;52.444;13.556;2023-01-31T17:04:39;14.35;;;12.43;;
7051;SDS011;3567;52.444;13.556;2023-01-31T17:07:07;18.42;;;11.77;;
7051;SDS011;3567;52.444;13.556;2023-01-31T17:09:40;18.13;;;13.55;;
7051;SDS011;3567;52.444;13.556;2023-01-31T17:12:05;13.85;;;12.40;;
7051;SDS011;3567;52.444;13.556;2023-01-31T17:14:33;15.88;;;13.15;;
7051;SDS011;3567;52.444;13.556;2023-01-31T17:16:59;19.80;;;13.82;;
7051;SDS011;3567;52.444;13.556;2023-01-31T17:19:25;18.63;;;12.38;;
7051;SDS011;3567;52.444;13.556;2023-01-31T17:21:50;15.98;;;13.07;;
7051;SDS011;3567;52.444;13.556;2023-01-31T17:24:17;18.13;;;12.73;;
7051;SDS011;3567;52.444;13.556;2023-01-31T17:26:44;15.23;;;12.85;;
7051;SDS011;3567;52.444;13.556;2023-01-31T17:29:10;15.02;;;13.43;;
7051;SDS011;3567;52.444;13.556;2023-01-31T17:31:35;19.98;;;13.63;;
7051;SDS011;3567;52.444;13.556;2023-01-31T17:34:00;19.52;;;13.93;;
7051;SDS011;3567;52.444;13.556;2023-01-31T17:36:27;17.20;;;13.35;;
7051;SDS011;3567;52.444;13.556;2023-01-31T17:38:52;17.23;;;13.52;;
7051;SDS011;3567;52.444;13.556;2023-01-31T17:41:18;16.02;;;13.20;;
7051;SDS011;3567;52.444;13.556;2023-01-31T17:43:44;17.55;;;14.05;;
7051;SDS011;3567;52.444;13.556;2023-01-31T17:46:12;19.15;;;14.48;;
7051;SDS011;3567;52.444;13.556;2023-01-31T17:48:38;19.58;;;14.75;;
7051;SDS011;3567;52.444;13.556;2023-01-31T17:51:05;17.90;;;13.45;;
7051;SDS011;3567;52.444;13.556;2023-01-31T17:53:31;17.75;;;13.10;;
7051;SDS011;3567;52.444;13.556;2023-01-31T17:55:56;18.85;;;13.65;;
7051;SDS011;3567;52.444;13.556;2023-01-31T17:58:22;17.92;;;13.93;;
7051;SDS011;3567;52.444;13.556;2023-01-31T18:00:48;20.23;;;14.60;;
7051;SDS011;3567;52.444;13.556;2023-01-31T18:03:17;20.52;;;14.05;;
7051;SDS011;3567;52.444;13.556;2023-01-31T18:05:44;15.90;;;14.05;;
7051;SDS011;3567;52.444;13.556;2023-01-31T18:08:11;18.13;;;14.43;;
7051;SDS011;3567;52.444;13.556;2023-01-31T18:10:36;19.30;;;13.02;;
7051;SDS011;3567;52.444;13.556;2023-01-31T18:13:02;17.80;;;13.40;;
7051;SDS011;3567;52.444;13.556;2023-01-31T18:15:28;15.85;;;12.85;;
7051;SDS011;3567;52.444;13.556;2023-01-31T18:17:53;14.25;;;12.60;;
7051;SDS011;3567;52.444;13.556;2023-01-31T18:20:19;16.90;;;12.57;;
7051;SDS011;3567;52.444;13.556;2023-01-31T18:22:44;16.23;;;12.20;;
7051;SDS011;3567;52.444;13.556;2023-01-31T18:25:10;16.15;;;12.75;;
7051;SDS011;3567;52.444;13.556;2023-01-31T18:27:36;17.85;;;13.15;;
7051;SDS011;3567;52.444;13.556;2023-01-31T18:30:02;16.83;;;12.13;;
7051;SDS011;3567;52.444;13.556;2023-01-31T18:32:29;20.98;;;12.43;;
7051;SDS011;3567;52.444;13.556;2023-01-31T18:34:55;18.08;;;12.63;;
7051;SDS011;3567;52.444;13.556;2023-01-31T18:37:20;15.77;;;12.90;;
7051;SDS011;3567;52.444;13.556;2023-01-31T18:39:46;15.98;;;12.98;;
7051;SDS011;3567;52.444;13.556;2023-01-31T18:42:13;15.90;;;11.75;;
7051;SDS011;3567;52.444;13.556;2023-01-31T18:44:38;18.05;;;10.98;;
7051;SDS011;3567;52.444;13.556;2023-01-31T18:47:04;18.92;;;11.10;;
7051;SDS011;3567;52.444;13.556;2023-01-31T18:49:29;14.80;;;11.60;;
7051;SDS011;3567;52.444;13.556;2023-01-31T18:51:54;16.30;;;10.27;;
7051;SDS011;3567;52.444;13.556;2023-01-31T18:54:20;15.60;;;9.85;;
7051;SDS011;3567;52.444;13.556;2023-01-31T18:56:45;15.05;;;9.95;;
7051;SDS011;3567;52.444;13.556;2023-01-31T18:59:11;12.27;;;10.05;;
7051;SDS011;3567;52.444;13.556;2023-01-31T19:01:36;13.35;;;10.13;;